Pagrindinis puslapis
METAR-TAF:

METAR-TAF

Oro uostai :

Port Morsbis, Papua Naujoji Gvinėja

platuma: 09-26S, ilguma: 147-13E, Aukštis: 38 m

Dabartinis oras

Ataskaita buvo paskelbta 29 minutes, ne 09:00 UTC
Vėjas 15 kt iš Pietų/Pietryčių
Temperatūra 27°C
Drėgmė 79%
Slėgis 1010 hPa
Matomumas 10 km arba daugiau
Su prošvaistėmis ne aukštis 4000 ft

METAR: AYPY 220900Z 15015KT 9999 BKN040 27/23 Q1010

Laikas: 19:29 (09:29 UTC)

Prognozė

Ataskaita buvo paskelbta 7 valandos ir 29 minutes, ne 02:00 UTC
Prognozė galioja nuo 22 metu 06 UTC su 23 metu 06 UTC
Vėjas 15 kt iš Pietų
Matomumas 10 km arba daugiau
Išsisklaidę debesys ne aukštis 2000 ft
Išsisklaidę debesys ne aukštis 14000 ft

TAF: AYPY 220200Z 2206/2306 18015KT 9999 SCT020 SCT140

Orai ataskaitas ir orų prognozės (METAR, TAF).

turimą stotys yra geltonos ir raudonos taškus žemėlapyje.

Perkelti pele per norėdami pamatyti stoties vardą.

Tada spustelėkite, norėdami matyti oro stebėjimo ir prognozės.

Norėdami pakeisti žemėlapį: spustelėkite ant žalios mygtukų su juodo kryžiaus žemyn,; žalią mygtuką su brūkšneliu, jei norite nutolinti; arba žalių rodyklių gretimoms žemėlapius.


METAR-TAF: